sensor_id;sensor_type;location;lat;lon;timestamp;P1;durP1;ratioP1;P2;durP2;ratioP2
78402;SDS011;67687;43.508;1.504;2023-04-03T00:01:35;8.93;;;3.40;;
78402;SDS011;67687;43.508;1.504;2023-04-03T00:04:04;6.65;;;3.30;;
78402;SDS011;67687;43.508;1.504;2023-04-03T00:06:32;7.50;;;3.47;;
78402;SDS011;67687;43.508;1.504;2023-04-03T00:09:00;8.05;;;3.53;;
78402;SDS011;67687;43.508;1.504;2023-04-03T00:11:26;7.10;;;3.47;;
78402;SDS011;67687;43.508;1.504;2023-04-03T00:13:53;6.60;;;3.70;;
78402;SDS011;67687;43.508;1.504;2023-04-03T00:16:20;7.90;;;3.42;;
78402;SDS011;67687;43.508;1.504;2023-04-03T00:18:47;8.93;;;3.97;;
78402;SDS011;67687;43.508;1.504;2023-04-03T00:21:17;5.75;;;3.33;;
78402;SDS011;67687;43.508;1.504;2023-04-03T00:23:44;7.28;;;3.58;;
78402;SDS011;67687;43.508;1.504;2023-04-03T00:26:11;10.80;;;4.07;;
78402;SDS011;67687;43.508;1.504;2023-04-03T00:28:37;8.48;;;3.60;;
78402;SDS011;67687;43.508;1.504;2023-04-03T00:31:04;7.45;;;3.72;;
78402;SDS011;67687;43.508;1.504;2023-04-03T00:33:31;8.82;;;3.83;;
78402;SDS011;67687;43.508;1.504;2023-04-03T00:35:58;8.02;;;3.85;;
78402;SDS011;67687;43.508;1.504;2023-04-03T00:38:26;9.53;;;3.63;;
78402;SDS011;67687;43.508;1.504;2023-04-03T00:40:53;7.57;;;3.50;;
78402;SDS011;67687;43.508;1.504;2023-04-03T00:43:20;8.80;;;3.53;;
78402;SDS011;67687;43.508;1.504;2023-04-03T00:45:48;7.47;;;3.97;;
78402;SDS011;67687;43.508;1.504;2023-04-03T00:48:15;8.95;;;4.13;;
78402;SDS011;67687;43.508;1.504;2023-04-03T00:50:44;8.80;;;3.80;;
78402;SDS011;67687;43.508;1.504;2023-04-03T00:53:12;6.05;;;3.13;;
78402;SDS011;67687;43.508;1.504;2023-04-03T00:55:43;7.10;;;3.55;;
78402;SDS011;67687;43.508;1.504;2023-04-03T00:58:10;8.45;;;3.83;;
78402;SDS011;67687;43.508;1.504;2023-04-03T01:00:38;7.50;;;3.78;;
78402;SDS011;67687;43.508;1.504;2023-04-03T01:03:06;6.73;;;3.30;;
78402;SDS011;67687;43.508;1.504;2023-04-03T01:05:33;8.20;;;4.00;;
78402;SDS011;67687;43.508;1.504;2023-04-03T01:08:00;8.43;;;3.58;;
78402;SDS011;67687;43.508;1.504;2023-04-03T01:10:27;6.13;;;3.40;;
78402;SDS011;67687;43.508;1.504;2023-04-03T01:12:55;8.02;;;3.45;;
78402;SDS011;67687;43.508;1.504;2023-04-03T01:15:23;7.03;;;3.27;;
78402;SDS011;67687;43.508;1.504;2023-04-03T01:17:52;7.60;;;3.65;;
78402;SDS011;67687;43.508;1.504;2023-04-03T01:23:39;7.07;;;3.40;;
78402;SDS011;67687;43.508;1.504;2023-04-03T01:26:22;7.40;;;3.42;;
78402;SDS011;67687;43.508;1.504;2023-04-03T01:28:52;5.97;;;3.63;;
78402;SDS011;67687;43.508;1.504;2023-04-03T01:31:20;9.07;;;3.53;;
78402;SDS011;67687;43.508;1.504;2023-04-03T01:33:50;8.55;;;3.63;;
78402;SDS011;67687;43.508;1.504;2023-04-03T01:36:19;8.90;;;3.55;;
78402;SDS011;67687;43.508;1.504;2023-04-03T01:38:47;5.55;;;3.30;;
78402;SDS011;67687;43.508;1.504;2023-04-03T01:41:14;7.07;;;3.40;;
78402;SDS011;67687;43.508;1.504;2023-04-03T01:43:41;7.93;;;3.70;;
78402;SDS011;67687;43.508;1.504;2023-04-03T01:46:08;5.82;;;3.47;;
78402;SDS011;67687;43.508;1.504;2023-04-03T01:48:34;7.13;;;3.55;;
78402;SDS011;67687;43.508;1.504;2023-04-03T01:51:02;9.30;;;3.95;;
78402;SDS011;67687;43.508;1.504;2023-04-03T01:53:29;9.97;;;3.63;;
78402;SDS011;67687;43.508;1.504;2023-04-03T01:55:56;8.48;;;3.65;;
78402;SDS011;67687;43.508;1.504;2023-04-03T01:58:23;7.15;;;3.90;;
78402;SDS011;67687;43.508;1.504;2023-04-03T02:00:50;7.47;;;3.83;;
78402;SDS011;67687;43.508;1.504;2023-04-03T02:03:17;10.07;;;4.25;;
78402;SDS011;67687;43.508;1.504;2023-04-03T02:05:44;7.53;;;3.90;;
78402;SDS011;67687;43.508;1.504;2023-04-03T02:08:12;7.07;;;3.70;;
78402;SDS011;67687;43.508;1.504;2023-04-03T02:10:39;6.93;;;4.07;;
78402;SDS011;67687;43.508;1.504;2023-04-03T02:13:06;10.68;;;4.40;;
78402;SDS011;67687;43.508;1.504;2023-04-03T02:15:33;8.57;;;4.43;;
78402;SDS011;67687;43.508;1.504;2023-04-03T02:17:59;11.20;;;4.30;;
78402;SDS011;67687;43.508;1.504;2023-04-03T02:20:26;8.73;;;5.25;;
78402;SDS011;67687;43.508;1.504;2023-04-03T02:22:53;8.95;;;4.53;;
78402;SDS011;67687;43.508;1.504;2023-04-03T02:25:21;11.20;;;5.55;;
78402;SDS011;67687;43.508;1.504;2023-04-03T02:27:47;10.43;;;4.95;;
78402;SDS011;67687;43.508;1.504;2023-04-03T02:30:14;10.53;;;5.17;;
78402;SDS011;67687;43.508;1.504;2023-04-03T02:32:41;9.05;;;4.78;;
78402;SDS011;67687;43.508;1.504;2023-04-03T02:35:10;11.15;;;5.07;;
78402;SDS011;67687;43.508;1.504;2023-04-03T02:37:38;10.05;;;4.60;;
78402;SDS011;67687;43.508;1.504;2023-04-03T02:40:06;11.02;;;5.03;;
78402;SDS011;67687;43.508;1.504;2023-04-03T02:42:34;9.87;;;5.57;;
78402;SDS011;67687;43.508;1.504;2023-04-03T02:45:01;9.10;;;4.93;;
78402;SDS011;67687;43.508;1.504;2023-04-03T02:47:28;8.00;;;4.72;;
78402;SDS011;67687;43.508;1.504;2023-04-03T02:49:55;10.77;;;4.90;;
78402;SDS011;67687;43.508;1.504;2023-04-03T02:52:21;9.85;;;5.28;;
78402;SDS011;67687;43.508;1.504;2023-04-03T02:54:48;8.70;;;4.77;;
78402;SDS011;67687;43.508;1.504;2023-04-03T02:57:15;11.50;;;5.47;;
78402;SDS011;67687;43.508;1.504;2023-04-03T02:59:43;10.43;;;5.25;;
78402;SDS011;67687;43.508;1.504;2023-04-03T03:02:10;9.05;;;4.80;;
78402;SDS011;67687;43.508;1.504;2023-04-03T03:04:37;9.85;;;5.15;;
78402;SDS011;67687;43.508;1.504;2023-04-03T03:07:03;7.87;;;5.23;;
78402;SDS011;67687;43.508;1.504;2023-04-03T03:09:30;11.25;;;5.05;;
78402;SDS011;67687;43.508;1.504;2023-04-03T03:11:57;7.97;;;4.70;;
78402;SDS011;67687;43.508;1.504;2023-04-03T03:14:24;9.05;;;5.40;;
78402;SDS011;67687;43.508;1.504;2023-04-03T03:16:52;9.30;;;5.00;;
78402;SDS011;67687;43.508;1.504;2023-04-03T03:19:19;8.77;;;5.00;;
78402;SDS011;67687;43.508;1.504;2023-04-03T03:21:45;9.90;;;4.65;;
78402;SDS011;67687;43.508;1.504;2023-04-03T03:24:12;7.97;;;4.85;;
78402;SDS011;67687;43.508;1.504;2023-04-03T03:26:40;7.53;;;4.60;;
78402;SDS011;67687;43.508;1.504;2023-04-03T03:29:07;8.40;;;5.00;;
78402;SDS011;67687;43.508;1.504;2023-04-03T03:31:34;9.57;;;4.90;;
78402;SDS011;67687;43.508;1.504;2023-04-03T03:34:02;8.35;;;5.22;;
78402;SDS011;67687;43.508;1.504;2023-04-03T03:36:29;13.23;;;5.50;;
78402;SDS011;67687;43.508;1.504;2023-04-03T03:38:55;9.98;;;5.00;;
78402;SDS011;67687;43.508;1.504;2023-04-03T03:41:22;8.60;;;5.25;;
78402;SDS011;67687;43.508;1.504;2023-04-03T03:43:49;9.47;;;5.50;;
78402;SDS011;67687;43.508;1.504;2023-04-03T03:46:15;10.15;;;5.25;;
78402;SDS011;67687;43.508;1.504;2023-04-03T03:48:42;10.10;;;5.32;;
78402;SDS011;67687;43.508;1.504;2023-04-03T03:51:10;8.95;;;4.88;;
78402;SDS011;67687;43.508;1.504;2023-04-03T03:53:37;8.27;;;4.90;;
78402;SDS011;67687;43.508;1.504;2023-04-03T03:56:04;11.63;;;5.50;;
78402;SDS011;67687;43.508;1.504;2023-04-03T03:58:31;10.90;;;5.15;;
78402;SDS011;67687;43.508;1.504;2023-04-03T04:01:00;12.43;;;5.53;;
78402;SDS011;67687;43.508;1.504;2023-04-03T04:03:27;8.70;;;4.78;;
78402;SDS011;67687;43.508;1.504;2023-04-03T04:05:54;8.95;;;4.75;;
78402;SDS011;67687;43.508;1.504;2023-04-03T04:08:22;8.23;;;4.53;;
78402;SDS011;67687;43.508;1.504;2023-04-03T04:10:49;9.90;;;5.45;;
78402;SDS011;67687;43.508;1.504;2023-04-03T04:13:16;8.23;;;5.10;;
78402;SDS011;67687;43.508;1.504;2023-04-03T04:15:43;9.70;;;4.95;;
78402;SDS011;67687;43.508;1.504;2023-04-03T04:18:09;11.15;;;5.32;;
78402;SDS011;67687;43.508;1.504;2023-04-03T04:20:36;11.33;;;5.60;;
78402;SDS011;67687;43.508;1.504;2023-04-03T04:23:03;11.07;;;5.43;;
78402;SDS011;67687;43.508;1.504;2023-04-03T04:25:31;8.35;;;4.75;;
78402;SDS011;67687;43.508;1.504;2023-04-03T04:27:58;9.05;;;5.30;;
78402;SDS011;67687;43.508;1.504;2023-04-03T04:30:24;11.35;;;5.03;;
78402;SDS011;67687;43.508;1.504;2023-04-03T04:32:52;9.67;;;5.13;;
78402;SDS011;67687;43.508;1.504;2023-04-03T04:35:19;9.45;;;4.93;;
78402;SDS011;67687;43.508;1.504;2023-04-03T04:37:46;10.07;;;5.18;;
78402;SDS011;67687;43.508;1.504;2023-04-03T04:40:12;8.70;;;5.50;;
78402;SDS011;67687;43.508;1.504;2023-04-03T04:42:41;10.40;;;5.18;;
78402;SDS011;67687;43.508;1.504;2023-04-03T04:45:08;9.97;;;4.90;;
78402;SDS011;67687;43.508;1.504;2023-04-03T04:47:35;8.98;;;5.28;;
78402;SDS011;67687;43.508;1.504;2023-04-03T04:50:01;9.85;;;5.20;;
78402;SDS011;67687;43.508;1.504;2023-04-03T04:52:28;9.00;;;4.78;;
78402;SDS011;67687;43.508;1.504;2023-04-03T04:54:55;9.00;;;5.05;;
78402;SDS011;67687;43.508;1.504;2023-04-03T04:57:22;10.70;;;5.10;;
78402;SDS011;67687;43.508;1.504;2023-04-03T04:59:50;10.20;;;4.65;;
78402;SDS011;67687;43.508;1.504;2023-04-03T05:02:16;9.13;;;5.43;;
78402;SDS011;67687;43.508;1.504;2023-04-03T05:04:43;8.18;;;4.97;;
78402;SDS011;67687;43.508;1.504;2023-04-03T05:07:10;8.32;;;4.35;;
78402;SDS011;67687;43.508;1.504;2023-04-03T05:09:37;11.27;;;5.67;;
78402;SDS011;67687;43.508;1.504;2023-04-03T05:12:06;10.02;;;5.25;;
78402;SDS011;67687;43.508;1.504;2023-04-03T05:14:33;9.60;;;5.75;;
78402;SDS011;67687;43.508;1.504;2023-04-03T05:17:01;11.82;;;5.70;;
78402;SDS011;67687;43.508;1.504;2023-04-03T05:19:28;9.75;;;5.43;;
78402;SDS011;67687;43.508;1.504;2023-04-03T05:21:54;11.43;;;5.87;;
78402;SDS011;67687;43.508;1.504;2023-04-03T05:24:21;10.10;;;5.38;;
78402;SDS011;67687;43.508;1.504;2023-04-03T05:26:48;9.25;;;5.45;;
78402;SDS011;67687;43.508;1.504;2023-04-03T05:29:15;8.98;;;4.50;;
78402;SDS011;67687;43.508;1.504;2023-04-03T05:31:41;8.45;;;5.30;;
78402;SDS011;67687;43.508;1.504;2023-04-03T05:34:10;10.10;;;5.67;;
78402;SDS011;67687;43.508;1.504;2023-04-03T05:36:36;10.85;;;5.97;;
78402;SDS011;67687;43.508;1.504;2023-04-03T05:39:03;9.70;;;5.40;;
78402;SDS011;67687;43.508;1.504;2023-04-03T05:41:30;9.23;;;5.82;;
78402;SDS011;67687;43.508;1.504;2023-04-03T05:43:56;10.68;;;5.68;;
78402;SDS011;67687;43.508;1.504;2023-04-03T05:46:23;11.53;;;5.93;;
78402;SDS011;67687;43.508;1.504;2023-04-03T05:48:50;11.80;;;5.90;;
78402;SDS011;67687;43.508;1.504;2023-04-03T05:51:18;9.90;;;5.60;;
78402;SDS011;67687;43.508;1.504;2023-04-03T05:53:46;8.93;;;5.72;;
78402;SDS011;67687;43.508;1.504;2023-04-03T05:56:13;10.50;;;5.90;;
78402;SDS011;67687;43.508;1.504;2023-04-03T05:58:40;9.37;;;5.33;;
78402;SDS011;67687;43.508;1.504;2023-04-03T06:01:07;11.55;;;6.32;;
78402;SDS011;67687;43.508;1.504;2023-04-03T06:03:34;12.82;;;6.18;;
78402;SDS011;67687;43.508;1.504;2023-04-03T06:06:02;11.05;;;5.30;;
78402;SDS011;67687;43.508;1.504;2023-04-03T06:08:31;9.82;;;5.78;;
78402;SDS011;67687;43.508;1.504;2023-04-03T06:10:58;10.10;;;5.80;;
78402;SDS011;67687;43.508;1.504;2023-04-03T06:13:24;9.95;;;5.80;;
78402;SDS011;67687;43.508;1.504;2023-04-03T06:15:51;12.07;;;6.18;;
78402;SDS011;67687;43.508;1.504;2023-04-03T06:18:18;9.88;;;5.45;;
78402;SDS011;67687;43.508;1.504;2023-04-03T06:20:45;10.40;;;5.90;;
78402;SDS011;67687;43.508;1.504;2023-04-03T06:23:12;8.43;;;5.50;;
78402;SDS011;67687;43.508;1.504;2023-04-03T06:25:40;10.98;;;5.63;;
78402;SDS011;67687;43.508;1.504;2023-04-03T06:28:07;10.13;;;5.95;;
78402;SDS011;67687;43.508;1.504;2023-04-03T06:30:35;10.35;;;6.22;;
78402;SDS011;67687;43.508;1.504;2023-04-03T06:33:02;12.25;;;5.72;;
78402;SDS011;67687;43.508;1.504;2023-04-03T06:35:29;10.03;;;5.93;;
78402;SDS011;67687;43.508;1.504;2023-04-03T06:37:55;8.82;;;5.70;;
78402;SDS011;67687;43.508;1.504;2023-04-03T06:40:23;8.85;;;5.72;;
78402;SDS011;67687;43.508;1.504;2023-04-03T06:42:52;9.57;;;5.35;;
78402;SDS011;67687;43.508;1.504;2023-04-03T06:45:19;10.40;;;5.95;;
78402;SDS011;67687;43.508;1.504;2023-04-03T06:47:46;9.73;;;5.50;;
78402;SDS011;67687;43.508;1.504;2023-04-03T06:50:13;9.07;;;5.40;;
78402;SDS011;67687;43.508;1.504;2023-04-03T06:52:40;9.15;;;5.40;;
78402;SDS011;67687;43.508;1.504;2023-04-03T06:55:07;11.25;;;5.40;;
78402;SDS011;67687;43.508;1.504;2023-04-03T06:57:35;8.35;;;5.40;;
78402;SDS011;67687;43.508;1.504;2023-04-03T07:00:04;9.23;;;5.23;;
78402;SDS011;67687;43.508;1.504;2023-04-03T07:02:32;9.88;;;5.35;;
78402;SDS011;67687;43.508;1.504;2023-04-03T07:04:59;7.95;;;5.25;;
78402;SDS011;67687;43.508;1.504;2023-04-03T07:07:26;9.85;;;4.82;;
78402;SDS011;67687;43.508;1.504;2023-04-03T07:09:52;10.15;;;5.40;;
78402;SDS011;67687;43.508;1.504;2023-04-03T07:12:19;9.73;;;5.40;;
78402;SDS011;67687;43.508;1.504;2023-04-03T07:14:46;8.93;;;5.07;;
78402;SDS011;67687;43.508;1.504;2023-04-03T07:17:14;11.32;;;5.50;;
78402;SDS011;67687;43.508;1.504;2023-04-03T07:19:41;9.13;;;4.97;;
78402;SDS011;67687;43.508;1.504;2023-04-03T07:22:08;8.52;;;5.07;;
78402;SDS011;67687;43.508;1.504;2023-04-03T07:24:36;10.87;;;5.00;;
78402;SDS011;67687;43.508;1.504;2023-04-03T07:27:04;6.88;;;4.35;;
78402;SDS011;67687;43.508;1.504;2023-04-03T07:29:33;10.05;;;5.00;;
78402;SDS011;67687;43.508;1.504;2023-04-03T07:32:00;8.60;;;5.35;;
78402;SDS011;67687;43.508;1.504;2023-04-03T07:34:28;8.50;;;5.13;;
78402;SDS011;67687;43.508;1.504;2023-04-03T07:36:55;9.17;;;5.10;;
78402;SDS011;67687;43.508;1.504;2023-04-03T07:39:22;11.15;;;5.40;;
78402;SDS011;67687;43.508;1.504;2023-04-03T07:41:49;10.02;;;4.82;;
78402;SDS011;67687;43.508;1.504;2023-04-03T07:44:16;8.48;;;5.13;;
78402;SDS011;67687;43.508;1.504;2023-04-03T07:46:43;11.00;;;5.53;;
78402;SDS011;67687;43.508;1.504;2023-04-03T07:49:10;11.07;;;4.80;;
78402;SDS011;67687;43.508;1.504;2023-04-03T07:51:38;8.45;;;4.38;;
78402;SDS011;67687;43.508;1.504;2023-04-03T07:54:05;8.95;;;4.93;;
78402;SDS011;67687;43.508;1.504;2023-04-03T07:56:32;9.30;;;4.55;;
78402;SDS011;67687;43.508;1.504;2023-04-03T07:58:59;8.48;;;4.50;;
78402;SDS011;67687;43.508;1.504;2023-04-03T08:01:26;7.60;;;4.50;;
78402;SDS011;67687;43.508;1.504;2023-04-03T08:03:53;9.20;;;4.40;;
78402;SDS011;67687;43.508;1.504;2023-04-03T08:06:19;7.00;;;4.07;;
78402;SDS011;67687;43.508;1.504;2023-04-03T08:08:48;9.10;;;4.45;;
78402;SDS011;67687;43.508;1.504;2023-04-03T08:11:15;8.43;;;4.53;;
78402;SDS011;67687;43.508;1.504;2023-04-03T08:13:41;7.83;;;3.70;;
78402;SDS011;67687;43.508;1.504;2023-04-03T08:16:09;6.38;;;4.03;;
78402;SDS011;67687;43.508;1.504;2023-04-03T08:18:36;7.95;;;4.38;;
78402;SDS011;67687;43.508;1.504;2023-04-03T08:21:07;6.15;;;4.05;;
78402;SDS011;67687;43.508;1.504;2023-04-03T08:23:35;7.35;;;3.75;;
78402;SDS011;67687;43.508;1.504;2023-04-03T08:26:07;6.07;;;3.43;;
78402;SDS011;67687;43.508;1.504;2023-04-03T08:28:34;7.70;;;4.00;;
78402;SDS011;67687;43.508;1.504;2023-04-03T08:31:04;6.90;;;4.03;;
78402;SDS011;67687;43.508;1.504;2023-04-03T08:33:32;8.02;;;4.05;;
78402;SDS011;67687;43.508;1.504;2023-04-03T08:36:00;7.05;;;4.10;;
78402;SDS011;67687;43.508;1.504;2023-04-03T08:38:28;7.03;;;4.00;;
78402;SDS011;67687;43.508;1.504;2023-04-03T08:41:04;6.50;;;3.40;;
78402;SDS011;67687;43.508;1.504;2023-04-03T08:43:40;8.32;;;4.40;;
78402;SDS011;67687;43.508;1.504;2023-04-03T08:46:19;6.75;;;4.07;;
78402;SDS011;67687;43.508;1.504;2023-04-03T08:48:49;6.70;;;3.90;;
78402;SDS011;67687;43.508;1.504;2023-04-03T08:51:17;6.13;;;3.97;;
78402;SDS011;67687;43.508;1.504;2023-04-03T08:53:48;6.95;;;3.47;;
78402;SDS011;67687;43.508;1.504;2023-04-03T08:56:26;7.05;;;3.85;;
78402;SDS011;67687;43.508;1.504;2023-04-03T08:58:55;6.75;;;3.60;;
78402;SDS011;67687;43.508;1.504;2023-04-03T09:01:23;6.20;;;3.75;;
78402;SDS011;67687;43.508;1.504;2023-04-03T09:03:51;6.20;;;3.30;;
78402;SDS011;67687;43.508;1.504;2023-04-03T09:06:19;7.82;;;3.90;;
78402;SDS011;67687;43.508;1.504;2023-04-03T09:08:49;6.78;;;3.40;;
78402;SDS011;67687;43.508;1.504;2023-04-03T09:11:35;7.40;;;3.50;;
78402;SDS011;67687;43.508;1.504;2023-04-03T09:14:07;7.03;;;3.70;;
78402;SDS011;67687;43.508;1.504;2023-04-03T09:16:43;6.67;;;3.80;;
78402;SDS011;67687;43.508;1.504;2023-04-03T09:19:15;8.30;;;3.20;;
78402;SDS011;67687;43.508;1.504;2023-04-03T09:21:45;6.93;;;3.42;;
78402;SDS011;67687;43.508;1.504;2023-04-03T09:24:13;8.13;;;3.38;;
78402;SDS011;67687;43.508;1.504;2023-04-03T09:26:44;5.53;;;2.97;;
78402;SDS011;67687;43.508;1.504;2023-04-03T09:29:14;6.27;;;3.10;;
78402;SDS011;67687;43.508;1.504;2023-04-03T09:31:44;5.20;;;2.97;;
78402;SDS011;67687;43.508;1.504;2023-04-03T09:34:14;6.22;;;3.25;;
78402;SDS011;67687;43.508;1.504;2023-04-03T09:36:44;6.10;;;3.10;;
78402;SDS011;67687;43.508;1.504;2023-04-03T09:39:13;5.85;;;2.75;;
78402;SDS011;67687;43.508;1.504;2023-04-03T09:41:43;6.30;;;3.10;;
78402;SDS011;67687;43.508;1.504;2023-04-03T09:44:23;7.78;;;3.45;;
78402;SDS011;67687;43.508;1.504;2023-04-03T09:46:50;6.38;;;3.00;;
78402;SDS011;67687;43.508;1.504;2023-04-03T09:49:18;7.32;;;2.90;;
78402;SDS011;67687;43.508;1.504;2023-04-03T09:51:45;5.47;;;3.00;;
78402;SDS011;67687;43.508;1.504;2023-04-03T09:57:01;7.00;;;2.83;;
78402;SDS011;67687;43.508;1.504;2023-04-03T09:59:32;5.97;;;2.97;;
78402;SDS011;67687;43.508;1.504;2023-04-03T10:02:00;5.45;;;2.80;;
78402;SDS011;67687;43.508;1.504;2023-04-03T10:04:46;6.70;;;3.03;;
78402;SDS011;67687;43.508;1.504;2023-04-03T10:07:26;6.27;;;2.27;;
78402;SDS011;67687;43.508;1.504;2023-04-03T10:09:59;5.40;;;2.40;;
78402;SDS011;67687;43.508;1.504;2023-04-03T10:12:28;4.30;;;2.33;;
78402;SDS011;67687;43.508;1.504;2023-04-03T10:14:55;5.82;;;2.38;;
78402;SDS011;67687;43.508;1.504;2023-04-03T10:17:25;5.57;;;2.45;;
78402;SDS011;67687;43.508;1.504;2023-04-03T10:19:58;5.30;;;2.30;;
78402;SDS011;67687;43.508;1.504;2023-04-03T10:22:30;5.20;;;2.20;;
78402;SDS011;67687;43.508;1.504;2023-04-03T10:25:04;4.68;;;2.22;;
78402;SDS011;67687;43.508;1.504;2023-04-03T10:27:40;4.97;;;2.10;;
78402;SDS011;67687;43.508;1.504;2023-04-03T10:30:17;5.72;;;2.00;;
78402;SDS011;67687;43.508;1.504;2023-04-03T10:32:52;3.83;;;1.90;;
78402;SDS011;67687;43.508;1.504;2023-04-03T10:35:29;4.80;;;1.92;;
78402;SDS011;67687;43.508;1.504;2023-04-03T10:38:04;4.68;;;2.00;;
78402;SDS011;67687;43.508;1.504;2023-04-03T10:40:37;5.47;;;2.72;;
78402;SDS011;67687;43.508;1.504;2023-04-03T10:43:13;4.57;;;2.20;;
78402;SDS011;67687;43.508;1.504;2023-04-03T10:45:49;3.80;;;1.67;;
78402;SDS011;67687;43.508;1.504;2023-04-03T10:48:20;5.50;;;2.05;;
78402;SDS011;67687;43.508;1.504;2023-04-03T10:50:57;4.93;;;1.90;;
78402;SDS011;67687;43.508;1.504;2023-04-03T10:53:29;5.78;;;2.30;;
78402;SDS011;67687;43.508;1.504;2023-04-03T10:56:01;4.53;;;1.95;;
78402;SDS011;67687;43.508;1.504;2023-04-03T10:58:32;4.47;;;1.87;;
78402;SDS011;67687;43.508;1.504;2023-04-03T11:01:01;6.57;;;2.22;;
78402;SDS011;67687;43.508;1.504;2023-04-03T11:03:34;4.35;;;2.00;;
78402;SDS011;67687;43.508;1.504;2023-04-03T11:06:05;4.10;;;1.85;;
78402;SDS011;67687;43.508;1.504;2023-04-03T11:08:35;5.40;;;2.10;;
78402;SDS011;67687;43.508;1.504;2023-04-03T11:11:05;4.67;;;1.83;;
78402;SDS011;67687;43.508;1.504;2023-04-03T11:13:35;3.63;;;1.77;;
78402;SDS011;67687;43.508;1.504;2023-04-03T11:16:05;3.47;;;1.55;;
78402;SDS011;67687;43.508;1.504;2023-04-03T11:18:34;4.70;;;2.20;;
78402;SDS011;67687;43.508;1.504;2023-04-03T11:21:02;6.68;;;2.28;;
78402;SDS011;67687;43.508;1.504;2023-04-03T11:23:33;4.10;;;1.93;;
78402;SDS011;67687;43.508;1.504;2023-04-03T11:26:07;4.40;;;2.08;;
78402;SDS011;67687;43.508;1.504;2023-04-03T11:28:37;4.05;;;1.95;;
78402;SDS011;67687;43.508;1.504;2023-04-03T11:31:08;4.70;;;2.08;;
78402;SDS011;67687;43.508;1.504;2023-04-03T11:34:05;4.80;;;2.33;;
78402;SDS011;67687;43.508;1.504;2023-04-03T11:36:49;4.60;;;2.00;;
78402;SDS011;67687;43.508;1.504;2023-04-03T11:39:19;3.40;;;1.90;;
78402;SDS011;67687;43.508;1.504;2023-04-03T11:41:49;4.95;;;1.83;;
78402;SDS011;67687;43.508;1.504;2023-04-03T11:44:29;4.55;;;1.88;;
78402;SDS011;67687;43.508;1.504;2023-04-03T11:47:00;5.82;;;2.20;;
78402;SDS011;67687;43.508;1.504;2023-04-03T11:58:13;6.20;;;2.00;;
78402;SDS011;67687;43.508;1.504;2023-04-03T12:00:49;4.88;;;2.05;;
78402;SDS011;67687;43.508;1.504;2023-04-03T12:09:35;4.35;;;1.83;;
78402;SDS011;67687;43.508;1.504;2023-04-03T12:15:21;3.75;;;2.00;;
78402;SDS011;67687;43.508;1.504;2023-04-03T12:21:18;7.90;;;2.08;;
78402;SDS011;67687;43.508;1.504;2023-04-03T12:23:57;6.53;;;2.30;;
78402;SDS011;67687;43.508;1.504;2023-04-03T12:26:27;4.25;;;1.92;;
78402;SDS011;67687;43.508;1.504;2023-04-03T12:28:58;3.85;;;1.90;;
78402;SDS011;67687;43.508;1.504;2023-04-03T12:31:32;4.30;;;2.00;;
78402;SDS011;67687;43.508;1.504;2023-04-03T12:34:14;5.43;;;2.00;;
78402;SDS011;67687;43.508;1.504;2023-04-03T12:36:52;4.85;;;2.20;;
78402;SDS011;67687;43.508;1.504;2023-04-03T12:39:33;5.47;;;2.50;;
78402;SDS011;67687;43.508;1.504;2023-04-03T12:42:12;4.35;;;2.25;;
78402;SDS011;67687;43.508;1.504;2023-04-03T12:44:56;4.80;;;2.00;;
78402;SDS011;67687;43.508;1.504;2023-04-03T12:47:28;6.22;;;2.22;;
78402;SDS011;67687;43.508;1.504;2023-04-03T12:49:58;4.88;;;2.50;;
78402;SDS011;67687;43.508;1.504;2023-04-03T12:52:31;5.68;;;2.15;;
78402;SDS011;67687;43.508;1.504;2023-04-03T12:55:01;6.57;;;2.15;;
78402;SDS011;67687;43.508;1.504;2023-04-03T12:57:30;4.93;;;2.10;;
78402;SDS011;67687;43.508;1.504;2023-04-03T13:00:00;5.55;;;2.10;;
78402;SDS011;67687;43.508;1.504;2023-04-03T13:02:45;4.63;;;2.20;;
78402;SDS011;67687;43.508;1.504;2023-04-03T13:05:13;5.00;;;1.90;;
78402;SDS011;67687;43.508;1.504;2023-04-03T13:07:44;5.80;;;2.10;;
78402;SDS011;67687;43.508;1.504;2023-04-03T13:10:17;4.87;;;1.83;;
78402;SDS011;67687;43.508;1.504;2023-04-03T13:12:45;4.18;;;1.83;;
78402;SDS011;67687;43.508;1.504;2023-04-03T13:15:14;5.63;;;2.00;;
78402;SDS011;67687;43.508;1.504;2023-04-03T13:17:42;5.55;;;1.90;;
78402;SDS011;67687;43.508;1.504;2023-04-03T13:20:10;4.75;;;1.70;;
78402;SDS011;67687;43.508;1.504;2023-04-03T13:22:47;5.53;;;2.20;;
78402;SDS011;67687;43.508;1.504;2023-04-03T13:25:17;4.60;;;2.30;;
78402;SDS011;67687;43.508;1.504;2023-04-03T13:27:46;6.32;;;2.40;;
78402;SDS011;67687;43.508;1.504;2023-04-03T13:30:20;3.75;;;2.00;;
78402;SDS011;67687;43.508;1.504;2023-04-03T13:32:50;6.65;;;2.10;;
78402;SDS011;67687;43.508;1.504;2023-04-03T13:38:22;4.38;;;2.28;;
78402;SDS011;67687;43.508;1.504;2023-04-03T13:40:51;5.15;;;2.20;;
78402;SDS011;67687;43.508;1.504;2023-04-03T13:43:19;4.05;;;1.50;;
78402;SDS011;67687;43.508;1.504;2023-04-03T13:48:36;3.70;;;1.40;;
78402;SDS011;67687;43.508;1.504;2023-04-03T13:51:05;3.50;;;1.50;;
78402;SDS011;67687;43.508;1.504;2023-04-03T13:53:43;4.38;;;2.00;;
78402;SDS011;67687;43.508;1.504;2023-04-03T13:56:16;4.80;;;1.88;;
78402;SDS011;67687;43.508;1.504;2023-04-03T13:58:55;4.28;;;1.95;;
78402;SDS011;67687;43.508;1.504;2023-04-03T14:01:32;5.83;;;1.80;;
78402;SDS011;67687;43.508;1.504;2023-04-03T14:04:09;4.50;;;1.80;;
78402;SDS011;67687;43.508;1.504;2023-04-03T14:06:38;5.60;;;1.70;;
78402;SDS011;67687;43.508;1.504;2023-04-03T14:09:06;5.18;;;1.70;;
78402;SDS011;67687;43.508;1.504;2023-04-03T14:11:32;3.60;;;1.70;;
78402;SDS011;67687;43.508;1.504;2023-04-03T14:14:01;3.63;;;1.80;;
78402;SDS011;67687;43.508;1.504;2023-04-03T14:16:31;5.80;;;1.75;;
78402;SDS011;67687;43.508;1.504;2023-04-03T14:18:59;5.53;;;1.98;;
78402;SDS011;67687;43.508;1.504;2023-04-03T14:21:26;3.85;;;1.60;;
78402;SDS011;67687;43.508;1.504;2023-04-03T14:23:53;3.70;;;1.85;;
78402;SDS011;67687;43.508;1.504;2023-04-03T14:26:23;3.63;;;1.67;;
78402;SDS011;67687;43.508;1.504;2023-04-03T14:28:52;3.92;;;1.50;;
78402;SDS011;67687;43.508;1.504;2023-04-03T14:31:20;4.13;;;1.45;;
78402;SDS011;67687;43.508;1.504;2023-04-03T14:33:47;4.47;;;1.83;;
78402;SDS011;67687;43.508;1.504;2023-04-03T14:36:15;5.57;;;2.10;;
78402;SDS011;67687;43.508;1.504;2023-04-03T14:38:45;5.23;;;1.83;;
78402;SDS011;67687;43.508;1.504;2023-04-03T14:41:16;4.07;;;1.70;;
78402;SDS011;67687;43.508;1.504;2023-04-03T14:43:46;4.45;;;1.98;;
78402;SDS011;67687;43.508;1.504;2023-04-03T14:46:14;5.63;;;2.40;;
78402;SDS011;67687;43.508;1.504;2023-04-03T14:48:43;6.10;;;2.08;;
78402;SDS011;67687;43.508;1.504;2023-04-03T14:51:11;6.37;;;2.10;;
78402;SDS011;67687;43.508;1.504;2023-04-03T14:53:38;5.40;;;2.15;;
78402;SDS011;67687;43.508;1.504;2023-04-03T14:56:11;5.65;;;2.03;;
78402;SDS011;67687;43.508;1.504;2023-04-03T14:58:39;5.50;;;2.30;;
78402;SDS011;67687;43.508;1.504;2023-04-03T15:01:08;4.95;;;2.05;;
78402;SDS011;67687;43.508;1.504;2023-04-03T15:03:36;5.83;;;2.33;;
78402;SDS011;67687;43.508;1.504;2023-04-03T15:06:03;5.25;;;1.83;;
78402;SDS011;67687;43.508;1.504;2023-04-03T15:08:30;4.70;;;2.20;;
78402;SDS011;67687;43.508;1.504;2023-04-03T15:10:57;5.80;;;2.00;;
78402;SDS011;67687;43.508;1.504;2023-04-03T15:13:26;4.50;;;2.10;;
78402;SDS011;67687;43.508;1.504;2023-04-03T15:15:53;4.47;;;1.90;;
78402;SDS011;67687;43.508;1.504;2023-04-03T15:18:22;5.05;;;2.13;;
78402;SDS011;67687;43.508;1.504;2023-04-03T15:20:52;6.00;;;2.00;;
78402;SDS011;67687;43.508;1.504;2023-04-03T15:23:21;5.85;;;1.90;;
78402;SDS011;67687;43.508;1.504;2023-04-03T15:25:51;5.35;;;2.10;;
78402;SDS011;67687;43.508;1.504;2023-04-03T15:28:25;6.10;;;2.10;;
78402;SDS011;67687;43.508;1.504;2023-04-03T15:30:55;4.43;;;1.80;;